Ek-star — LAMT5 — position and weather

sailwx.info

Track history (hours):
 
Tides and Currents Weather Stations Pressure Air Temp Water Temp Dewpoint Dewpoint Depression Visibility Wind Speed Wind Dir Waves Ship Positions

Ek-star

Last reported at 2015-Jul-03 18:33 UTC. Time now 2015-Jul-03 20:17 UTC.
Position N 59°48' E 024°31'.

Length 135 m; draft 8.9 m.

Type: Ship (hazmat cat A). MMSI: 257433000.

Date/timePositionNaut miles runAvg speedWind from/ knotsBaromVisibWave heightAir tempDewpointWater temp
2015-Jul-03 18:33N 59°48' E 024°31'32 2.4
2015-Jul-03 05:32N 59°49' E 025°35'1 0.8
2015-Jul-03 04:31N 59°49' E 025°33'1 0.8
2015-Jul-03 03:28N 59°49' E 025°32'1 0.8
2015-Jul-03 02:22N 59°48' E 025°30'1 0.7
2015-Jul-03 01:33N 59°48' E 025°29'1 0.7
2015-Jul-03 00:33N 59°48' E 025°28'1 0.7
2015-Jul-02 23:31N 59°47' E 025°27'0 0.4
2015-Jul-02 22:33N 59°47' E 025°27'3 2.6
2015-Jul-02 21:33N 59°49' E 025°30'0 0.3
2015-Jul-02 20:33N 59°48' E 025°29'0 0.3
2015-Jul-02 19:33N 59°48' E 025°29'1 0.1
2015-Jul-02 14:16N 59°48' E 025°29'0 0.1
2015-Jul-02 13:30N 59°47' E 025°30'0 0.2
2015-Jul-02 12:33N 59°47' E 025°29'0 0.2
2015-Jul-02 10:33N 59°47' E 025°29'0 0.2
2015-Jul-02 09:33N 59°47' E 025°28'0 0.1
2015-Jul-02 08:32N 59°47' E 025°28'0 0.1
2015-Jul-02 07:15N 59°47' E 025°28'1 0.7
2015-Jul-02 06:22N 59°47' E 025°27'7 8.0
2015-Jul-02 05:31N 59°53' E 025°34'1312.9
2015-Jul-02 04:30N 59°57' E 025°59'1513.0
2015-Jul-02 03:21N 60°01' E 026°28'1312.7
2015-Jul-02 02:20N 60°00' E 026°54'8212.0
2015-Jul-01 19:33N 60°00' E 029°37'1111.1
2015-Jul-01 18:33N 59°56' E 029°57'7 7.1
2015-Jul-01 17:32N 59°53' E 030°11'0 0.0
2015-Jul-01 16:32N 59°53' E 030°11'0 0.0
2015-Jul-01 15:32N 59°53' E 030°11'0 0.0
2015-Jul-01 14:32N 59°53' E 030°11'0 0.0
2015-Jul-01 13:32N 59°53' E 030°11'0 0.0
2015-Jul-01 12:32N 59°53' E 030°11'0 0.0
2015-Jul-01 11:32N 59°53' E 030°11'0 0.0
2015-Jul-01 10:32N 59°53' E 030°11'0 0.0
2015-Jul-01 09:32N 59°53' E 030°11'0 0.0
2015-Jul-01 08:32N 59°53' E 030°11'0 0.0
2015-Jul-01 07:32N 59°53' E 030°11'0 0.0
2015-Jul-01 06:32N 59°53' E 030°11'0 0.0
2015-Jul-01 05:32N 59°53' E 030°11'0 0.0
2015-Jul-01 04:32N 59°53' E 030°11'0 0.0
2015-Jul-01 03:32N 59°53' E 030°11'0 0.0
2015-Jul-01 02:29N 59°53' E 030°11'0 0.0
2015-Jul-01 01:32N 59°53' E 030°11'0 0.0
2015-Jul-01 00:32N 59°53' E 030°11'0 0.0
2015-Jun-30 23:32N 59°53' E 030°11'0 0.0
2015-Jun-30 22:32N 59°53' E 030°11'0 0.0
2015-Jun-30 21:33N 59°53' E 030°11'0 0.0
2015-Jun-30 20:33N 59°53' E 030°11'0 0.0
2015-Jun-30 19:33N 59°53' E 030°11'0 0.0
2015-Jun-30 18:33N 59°53' E 030°11'0 0.0
2015-Jun-30 17:33N 59°53' E 030°11'0 0.0
2015-Jun-30 16:33N 59°53' E 030°11'0 0.0
2015-Jun-30 15:33N 59°53' E 030°11'0 0.0
2015-Jun-30 14:33N 59°53' E 030°11'2 2.2
2015-Jun-30 13:33N 59°54' E 030°07'1212.1
2015-Jun-30 12:33N 59°59' E 029°45'70 2.9
2015-Jun-29 12:33N 60°04' E 027°25'1413.5
2015-Jun-29 11:32N 59°58' E 027°00'1313.4
2015-Jun-29 10:33N 59°59' E 026°34'1513.7
2015-Jun-29 09:28N 59°55' E 026°06'4313.7
2015-Jun-29 06:19N 59°46' E 024°42'1113.7
2015-Jun-29 05:33N 59°44' E 024°22'1413.7
2015-Jun-29 04:33N 59°39' E 023°56'1413.8
2015-Jun-29 03:34N 59°35' E 023°30'1413.9
2015-Jun-29 02:33N 59°30' E 023°04'1413.8
2015-Jun-29 01:33N 59°26' E 022°38'1413.9
2015-Jun-29 00:33N 59°18' E 022°16'1413.9
2015-Jun-28 23:33N 59°09' E 021°55'1414.0
2015-Jun-28 22:33N 58°59' E 021°35'27913.6
2015-Jun-28 02:04N 55°40' E 015°32'714.2
2015-Jun-28 01:33N 55°37' E 015°21'1414.0
2015-Jun-28 00:33N 55°30' E 014°60'1414.0
2015-Jun-27 23:33N 55°23' E 014°38'1814.0
2015-Jun-27 22:16N 55°09' E 014°18'1213.6
2015-Jun-27 21:23N 55°01' E 014°03'6913.7
2015-Jun-27 16:22N 54°31' E 012°15'1011.9
2015-Jun-27 15:33N 54°25' E 012°03'1313.3
2015-Jun-27 14:33N 54°27' E 011°41'1414.1
2015-Jun-27 13:33N 54°32' E 011°18'1413.8
2015-Jun-27 12:33N 54°40' E 010°58'1211.4
2015-Jun-27 11:28N 54°52' E 010°52'1213.1
2015-Jun-27 10:32N 55°03' E 011°01'1313.1
2015-Jun-27 09:33N 55°15' E 011°05'4 0.1
2015-Jun-25 07:10N 55°19' E 011°03'712.2
2015-Jun-25 06:33N 55°12' E 011°06'1212.5
2015-Jun-25 05:34N 55°00' E 011°01'2110.4
2015-Jun-25 03:33N 54°39' E 011°01'1212.4
2015-Jun-25 02:33N 54°34' E 011°20'1212.3
2015-Jun-25 01:33N 54°28' E 011°39'1212.1
2015-Jun-25 00:33N 54°26' E 011°60'  
Track history (hours):
 
Tides and Currents Weather Stations Pressure Air Temp Water Temp Dewpoint Dewpoint Depression Visibility Wind Speed Wind Dir Waves Ship Positions

Ek-star

Last reported at 2015-Jul-03 18:33 UTC. Time now 2015-Jul-03 20:17 UTC.
Position N 59°48' E 024°31'.

Length 135 m; draft 8.9 m.

Type: Ship (hazmat cat A). MMSI: 257433000.

Date/timePositionNaut miles runAvg speedWind from/ knotsBaromVisibWave heightAir tempDewpointWater temp
2015-Jul-03 18:33N 59°48' E 024°31'32 2.4
2015-Jul-03 05:32N 59°49' E 025°35'1 0.8
2015-Jul-03 04:31N 59°49' E 025°33'1 0.8
2015-Jul-03 03:28N 59°49' E 025°32'1 0.8
2015-Jul-03 02:22N 59°48' E 025°30'1 0.7
2015-Jul-03 01:33N 59°48' E 025°29'1 0.7
2015-Jul-03 00:33N 59°48' E 025°28'1 0.7
2015-Jul-02 23:31N 59°47' E 025°27'0 0.4
2015-Jul-02 22:33N 59°47' E 025°27'3 2.6
2015-Jul-02 21:33N 59°49' E 025°30'0 0.3
2015-Jul-02 20:33N 59°48' E 025°29'0 0.3
2015-Jul-02 19:33N 59°48' E 025°29'1 0.1
2015-Jul-02 14:16N 59°48' E 025°29'0 0.1
2015-Jul-02 13:30N 59°47' E 025°30'0 0.2
2015-Jul-02 12:33N 59°47' E 025°29'0 0.2
2015-Jul-02 10:33N 59°47' E 025°29'0 0.2
2015-Jul-02 09:33N 59°47' E 025°28'0 0.1
2015-Jul-02 08:32N 59°47' E 025°28'0 0.1
2015-Jul-02 07:15N 59°47' E 025°28'1 0.7
2015-Jul-02 06:22N 59°47' E 025°27'7 8.0
2015-Jul-02 05:31N 59°53' E 025°34'1312.9
2015-Jul-02 04:30N 59°57' E 025°59'1513.0
2015-Jul-02 03:21N 60°01' E 026°28'1312.7
2015-Jul-02 02:20N 60°00' E 026°54'8212.0
2015-Jul-01 19:33N 60°00' E 029°37'1111.1
2015-Jul-01 18:33N 59°56' E 029°57'7 7.1
2015-Jul-01 17:32N 59°53' E 030°11'0 0.0
2015-Jul-01 16:32N 59°53' E 030°11'0 0.0
2015-Jul-01 15:32N 59°53' E 030°11'0 0.0
2015-Jul-01 14:32N 59°53' E 030°11'0 0.0
2015-Jul-01 13:32N 59°53' E 030°11'0 0.0
2015-Jul-01 12:32N 59°53' E 030°11'0 0.0
2015-Jul-01 11:32N 59°53' E 030°11'0 0.0
2015-Jul-01 10:32N 59°53' E 030°11'0 0.0
2015-Jul-01 09:32N 59°53' E 030°11'0 0.0
2015-Jul-01 08:32N 59°53' E 030°11'0 0.0
2015-Jul-01 07:32N 59°53' E 030°11'0 0.0
2015-Jul-01 06:32N 59°53' E 030°11'0 0.0
2015-Jul-01 05:32N 59°53' E 030°11'0 0.0
2015-Jul-01 04:32N 59°53' E 030°11'0 0.0
2015-Jul-01 03:32N 59°53' E 030°11'0 0.0
2015-Jul-01 02:29N 59°53' E 030°11'0 0.0
2015-Jul-01 01:32N 59°53' E 030°11'0 0.0
2015-Jul-01 00:32N 59°53' E 030°11'0 0.0
2015-Jun-30 23:32N 59°53' E 030°11'0 0.0
2015-Jun-30 22:32N 59°53' E 030°11'0 0.0
2015-Jun-30 21:33N 59°53' E 030°11'0 0.0
2015-Jun-30 20:33N 59°53' E 030°11'0 0.0
2015-Jun-30 19:33N 59°53' E 030°11'0 0.0
2015-Jun-30 18:33N 59°53' E 030°11'0 0.0
2015-Jun-30 17:33N 59°53' E 030°11'0 0.0
2015-Jun-30 16:33N 59°53' E 030°11'0 0.0
2015-Jun-30 15:33N 59°53' E 030°11'0 0.0
2015-Jun-30 14:33N 59°53' E 030°11'2 2.2
2015-Jun-30 13:33N 59°54' E 030°07'1212.1
2015-Jun-30 12:33N 59°59' E 029°45'70 2.9
2015-Jun-29 12:33N 60°04' E 027°25'1413.5
2015-Jun-29 11:32N 59°58' E 027°00'1313.4
2015-Jun-29 10:33N 59°59' E 026°34'1513.7
2015-Jun-29 09:28N 59°55' E 026°06'4313.7
2015-Jun-29 06:19N 59°46' E 024°42'1113.7
2015-Jun-29 05:33N 59°44' E 024°22'1413.7
2015-Jun-29 04:33N 59°39' E 023°56'1413.8
2015-Jun-29 03:34N 59°35' E 023°30'1413.9
2015-Jun-29 02:33N 59°30' E 023°04'1413.8
2015-Jun-29 01:33N 59°26' E 022°38'1413.9
2015-Jun-29 00:33N 59°18' E 022°16'1413.9
2015-Jun-28 23:33N 59°09' E 021°55'1414.0
2015-Jun-28 22:33N 58°59' E 021°35'27913.6
2015-Jun-28 02:04N 55°40' E 015°32'714.2
2015-Jun-28 01:33N 55°37' E 015°21'1414.0
2015-Jun-28 00:33N 55°30' E 014°60'1414.0
2015-Jun-27 23:33N 55°23' E 014°38'1814.0
2015-Jun-27 22:16N 55°09' E 014°18'1213.6
2015-Jun-27 21:23N 55°01' E 014°03'6913.7
2015-Jun-27 16:22N 54°31' E 012°15'1011.9
2015-Jun-27 15:33N 54°25' E 012°03'1313.3
2015-Jun-27 14:33N 54°27' E 011°41'1414.1
2015-Jun-27 13:33N 54°32' E 011°18'1413.8
2015-Jun-27 12:33N 54°40' E 010°58'1211.4
2015-Jun-27 11:28N 54°52' E 010°52'1213.1
2015-Jun-27 10:32N 55°03' E 011°01'1313.1
2015-Jun-27 09:33N 55°15' E 011°05'4 0.1
2015-Jun-25 07:10N 55°19' E 011°03'712.2
2015-Jun-25 06:33N 55°12' E 011°06'1212.5
2015-Jun-25 05:34N 55°00' E 011°01'2110.4
2015-Jun-25 03:33N 54°39' E 011°01'1212.4
2015-Jun-25 02:33N 54°34' E 011°20'1212.3
2015-Jun-25 01:33N 54°28' E 011°39'1212.1
2015-Jun-25 00:33N 54°26' E 011°60'  

Dump ship's entire track history